Pagrindinis puslapis
METAR-TAF:

METAR-TAF

Oro uostai :

Pian Rosa, Italija

platuma: 45-56N, ilguma: 007-42E, Aukštis: 3480 m

Dabartinis oras

Ataskaita buvo paskelbta 52 minutes, ne 17:55 UTC
Vėjas 6 kt iš Šiaurės Rytų
Temperatūra 1°C
Drėgmė 93%
Slėgis 1031 hPa
Matomumas 10 km arba daugiau
nėra debesų žemiau 1500 m ir nėra kamuolinių lietaus debesų

METAR: LIMH 191755Z 04006KT CAVOK 01/00 Q1031 RMK SKC MON LIB VAL MAR CLD VIS MIN 9999

Laikas: 20:47 (18:47 UTC)


TAF: trūkstamas

Orai ataskaitas ir orų prognozės (METAR, TAF).

turimą stotys yra geltonos ir raudonos taškus žemėlapyje.

Perkelti pele per norėdami pamatyti stoties vardą.

Tada spustelėkite, norėdami matyti oro stebėjimo ir prognozės.

Norėdami pakeisti žemėlapį: spustelėkite ant žalios mygtukų su juodo kryžiaus žemyn,; žalią mygtuką su brūkšneliu, jei norite nutolinti; arba žalių rodyklių gretimoms žemėlapius.


METAR-TAF: